Details for Ryanair at LIRP




Go Back


Latest METAR
Local Time

LIRP 241315Z 09012KT 9999 SCT080 14/03 Q1005 TEMPO 07020G30KT

24/02/2018, 14:46:00

Description
Results
Ryanair Logo
Number of Pilots based at LIRP
1 Pilots Based here
Number of Ryanair Flights Departed from LIRP
2 Flights Departed
Number of Ryanair Flights Arrived at LIRP
3 Flights Arrived
Number of Ryanair Schedules Departing from LIRP
94 Schedules
Number of Ryanair Schedules Arriving at LIRP
92 Schedules
Number of Ryanair Schedules Departing from LIRP availible today
29 Schedules Today
Number of Ryanair Schedules Arriving at LIRP availible today
29 Schedules Today
Average Landing Rate at LIRP
-139 fpm
Ryanair Average Landing Rate at LIRP
-159 fpm
Total Fuel Purchased at LIRP by Ryanair
10,243.93 kgs / 22,583.77 lbs

Pilots Based at LIRP


Pilot ID
Pilot Name
Pilot Rank
No. of Flights
No. of Flying Hours
Andrea Lodovini
1
4.01
Content